Decoded Metar for KLUX (LAURENS CTY in SC, USA) (IATA:LUX) | Meteo·Mobile Aviation Weather
aviador You're here:

KLUX Decoded Metar

LAURENS CTY in SC, USA
Report Time2018-12-16 02:55:00
UTC Time2018-12-16 03:05:52
Flight Rules mvfr MVFR
Wind240° at 04 kt
W.Decomp.*RWY 26: 3.8 kt HW 1.1 kt LCW
W.Rank240° ranks 4
Current wind is below 240° avg. (6.0)
Visibility9999 m
Phenomena:N/A
Clouds:Broken 027 Hf
Overcast 034 Hf
Expected CloudBase > 400 ft AGL from Temp-Dew spread
Ceiling2,700 ft
Temp08°C (ISA -6)
Dew Point07°C (93% RH)
AAT5.8°C
QNH1015 hPa
Density Alt95 ft
Elevation699 ft
Report Wrong Elevation
Raw Report
METAR KLUX 160255Z AUTO 24004KT 10SM BKN027 OVC034 08/07 A2998 RMK
AO2=

Extra information for KLUX:More info

Metar Taf Metar & Taf Last 4 Metars F.Rules Stats Wind Profile Meteogram Temp Stats Airport Information Weather charts Add Link Nearby VenuesMetar ALERT Operation Metar Decoded Social comments

AIRNAV info for KLUX